Buoy 44891

sailwx.info

Track history (hours):
 
Tides and Currents Weather Stations Pressure Air Temp Water Temp Dewpoint Dewpoint Depression Visibility Wind Speed Wind Dir Waves Ship Positions

Drifting buoy 44891

Last reported at 2018-Jun-23 21:00 UTC. Time now 2018-Jun-23 21:53 UTC.
Position N 35°40' W 052°58'.

Barometer 1023.0 mb
Water temperature 24.2 ° C

Date/timePositionNaut miles runAvg speedWind from/ knotsBaromVisibWave heightAir tempDewpointWater temp
2018-Jun-23 21:00N 35°40' W 052°58'0 0.0 1023.0 24.2
2018-Jun-23 20:00N 35°40' W 052°58'0 0.5 1023.1 24.1
2018-Jun-23 19:00N 35°40' W 052°58'1 0.8 1023.1 24.2
2018-Jun-23 18:00N 35°40' W 052°59'1 0.6 1023.1 24.1
2018-Jun-23 17:00N 35°39' W 052°59'0 0.0 1023.1 24.1
2018-Jun-23 16:00N 35°39' W 052°59'1 0.6 1023.2 23.9
2018-Jun-23 15:00N 35°38' W 052°59'1 0.6 1023.6 23.9
2018-Jun-23 14:00N 35°38' W 052°59'1 0.8 1023.7 23.8
2018-Jun-23 13:00N 35°37' W 052°58'0 0.0 1023.6 23.7
2018-Jun-23 12:00N 35°37' W 052°58'1 0.8 1023.3 23.7
2018-Jun-23 11:00N 35°37' W 052°58'0 0.5 1023.3 23.7
2018-Jun-23 10:00N 35°37' W 052°57'0 0.5 1022.9 23.7
2018-Jun-23 09:00N 35°37' W 052°56'1 0.6 1022.5 23.6
2018-Jun-23 08:00N 35°36' W 052°56'0 0.5 1022.1 23.6
2018-Jun-23 07:00N 35°36' W 052°56'1 0.8 1021.9 23.7
2018-Jun-23 06:00N 35°37' W 052°55'0 0.0 1021.6 23.7
2018-Jun-23 05:00N 35°37' W 052°55'0 0.0 1021.6 23.7
2018-Jun-23 04:00N 35°37' W 052°55'0 0.0 1021.7 23.7
2018-Jun-23 03:00N 35°37' W 052°55'0 0.0 1021.7 23.7
2018-Jun-23 02:00N 35°37' W 052°55'1 0.8 1021.9 23.7
2018-Jun-23 01:00N 35°36' W 052°56'0 0.0 1022.1 23.7
2018-Jun-23 00:00N 35°36' W 052°56'1 0.6 1021.9 23.7
2018-Jun-22 23:00N 35°35' W 052°56'1 0.3 1021.4 23.7
2018-Jun-22 21:00N 35°35' W 052°56'0 0.0 1020.6 23.8
2018-Jun-22 20:00N 35°35' W 052°56'1 0.6 1020.7 23.8
2018-Jun-22 19:00N 35°34' W 052°56'1 0.6 1020.7 23.8
2018-Jun-22 18:00N 35°34' W 052°56'1 0.6 1020.7 23.8
2018-Jun-22 17:00N 35°33' W 052°56'0 0.0 1020.8 23.8
2018-Jun-22 16:00N 35°33' W 052°56'1 0.6 1020.9 23.7
2018-Jun-22 15:00N 35°32' W 052°56'0 0.5 1021.0 23.7
2018-Jun-22 14:00N 35°32' W 052°55'1 0.6 1020.9 23.6
2018-Jun-22 13:00N 35°32' W 052°55'2 0.2 1020.7 23.5
2018-Jun-22 03:00N 35°30' W 052°53'0 0.5 1019.3 23.5
2018-Jun-22 02:00N 35°30' W 052°53'0 0.0 1019.5 23.5
2018-Jun-22 01:00N 35°30' W 052°53'0 0.0 1019.6 23.5
2018-Jun-22 00:00N 35°30' W 052°53'1 0.2 1019.2 23.5
2018-Jun-21 21:00N 35°31' W 052°53'1 0.6 1018.2 23.6
2018-Jun-21 20:00N 35°30' W 052°53'0 0.0 1017.6 23.6
2018-Jun-21 19:00N 35°30' W 052°53'0 0.0 1017.7 23.6
2018-Jun-21 18:00N 35°30' W 052°53'1 0.8 1017.7 23.6
2018-Jun-21 17:00N 35°29' W 052°52'0 0.0 1017.7 23.6
2018-Jun-21 16:00N 35°29' W 052°52'0 0.5 1017.7 23.5
2018-Jun-21 15:00N 35°29' W 052°52'1 0.6 1017.8 23.4
2018-Jun-21 14:00N 35°29' W 052°52'0 0.0 1017.9 23.4
2018-Jun-21 13:00N 35°29' W 052°52'1 0.8 1017.6 23.3
2018-Jun-21 12:00N 35°29' W 052°51'0 0.0 1017.3 23.2
2018-Jun-21 11:00N 35°29' W 052°51'0 0.0 1017.1 23.2
2018-Jun-21 10:00N 35°29' W 052°51'0 0.5 1016.7 23.2
2018-Jun-21 09:00N 35°29' W 052°50'0 0.0 1016.1 23.2
2018-Jun-21 08:00N 35°29' W 052°50'0 0.0 1015.6 23.2
2018-Jun-21 07:00N 35°29' W 052°50'0 0.5 1015.4 23.3
2018-Jun-21 06:00N 35°29' W 052°50'1 0.6 1015.4 23.3
2018-Jun-21 05:00N 35°29' W 052°50'0 0.0 1015.8 23.3
2018-Jun-21 04:00N 35°29' W 052°50'0 0.5 1015.9 23.3
2018-Jun-21 03:00N 35°29' W 052°49'0 0.0 1016.1 23.3
2018-Jun-21 02:00N 35°29' W 052°49'0 0.5 1015.9 23.3
2018-Jun-21 01:00N 35°29' W 052°49'0 0.0 1016.3 23.3
2018-Jun-20 23:00N 35°29' W 052°49'0 0.0 1016.1 23.4
2018-Jun-20 22:00N 35°29' W 052°49'0 0.5 1015.7 23.4
2018-Jun-20 21:00N 35°29' W 052°48'0 0.0 1015.4 23.4
2018-Jun-20 20:00N 35°29' W 052°48'1 0.6 1015.2 23.4
2018-Jun-20 19:00N 35°28' W 052°48'0 0.5 1015.4 23.4
2018-Jun-20 18:00N 35°28' W 052°47'0 0.5 1015.4 23.5
2018-Jun-20 17:00N 35°28' W 052°47'0 0.0 1015.3 23.5
2018-Jun-20 16:00N 35°28' W 052°47'1 0.8 1015.1 23.5
2018-Jun-20 15:00N 35°28' W 052°46'0 0.5 1015.2 23.4
2018-Jun-20 14:00N 35°28' W 052°46'0 0.5 1015.2 23.4
2018-Jun-20 13:00N 35°28' W 052°45'2 0.6 1014.7 23.4
2018-Jun-20 10:00N 35°29' W 052°43'1 0.8 1014.5 23.4
2018-Jun-20 09:00N 35°29' W 052°43'1 0.6 1014.3 23.4
2018-Jun-20 08:00N 35°30' W 052°43'1 0.6 1013.9 23.5
2018-Jun-20 07:00N 35°31' W 052°43'1 0.6 1013.5 23.5
2018-Jun-20 06:00N 35°31' W 052°43'0 0.0 1013.3 23.6
2018-Jun-20 05:00N 35°31' W 052°43'1 0.6 1013.5 23.6
2018-Jun-20 04:00N 35°31' W 052°43'0 0.0 1013.7 23.7
2018-Jun-20 03:00N 35°31' W 052°43'0 0.0 1014.0 23.8
2018-Jun-20 02:00N 35°31' W 052°43'1 0.8 1014.4 23.9
2018-Jun-20 01:00N 35°30' W 052°42'0 0.5 1014.3 24.0
2018-Jun-20 00:00N 35°30' W 052°41'1 0.8 1014.2 24.2
2018-Jun-19 23:00N 35°29' W 052°41'1 1.0 1014.1 24.2
2018-Jun-19 22:00N 35°29' W 052°40'1 0.8 1013.9 24.1
2018-Jun-19 21:00N 35°29' W 052°39'1 1.0 1013.6 24.1
2018-Jun-19 20:00N 35°29' W 052°38'1 1.0 1013.7 24.1
2018-Jun-19 19:00N 35°29' W 052°37'1 0.8 1014.3 24.1
2018-Jun-19 18:00N 35°29' W 052°36'1 1.0 1014.6 24.4
2018-Jun-19 17:00N 35°29' W 052°35'0 0.5 1015.1 24.6
2018-Jun-19 16:00N 35°29' W 052°34'1 0.8 1015.4 24.6
2018-Jun-19 15:00N 35°30' W 052°34'0 0.5 1015.8 24.1
2018-Jun-19 14:00N 35°30' W 052°33'0 0.5 1016.0 24.1
2018-Jun-19 13:00N 35°30' W 052°32'1 0.8 1016.0 24.1
2018-Jun-19 12:00N 35°31' W 052°32'0 0.5 1016.4 23.4
2018-Jun-19 11:00N 35°31' W 052°31'1 0.6 1016.8 23.0
2018-Jun-19 10:00N 35°31' W 052°31'0 0.0 1016.9 22.9
2018-Jun-19 09:00N 35°31' W 052°31'1 0.8 1016.6 22.9
2018-Jun-19 08:00N 35°31' W 052°31'0 0.0 1016.6 22.9
2018-Jun-19 07:00N 35°31' W 052°31'0 0.5 1016.5 23.0
2018-Jun-19 06:00N 35°31' W 052°30'1 0.8 1017.1 23.0
2018-Jun-19 05:00N 35°30' W 052°29'1 0.8 1017.6 23.0
2018-Jun-19 04:00N 35°29' W 052°29'0 0.5 1018.1 23.0
2018-Jun-19 03:00N 35°29' W 052°28'1 0.8 1018.5 23.1
2018-Jun-19 02:00N 35°29' W 052°28'1 1.1 1018.6 23.1
2018-Jun-19 01:00N 35°28' W 052°26'2 1.0 1018.6 23.1
2018-Jun-18 23:00N 35°28' W 052°24'1 1.5 1018.5 23.2
2018-Jun-18 22:00N 35°28' W 052°22'1 1.0 1018.3 23.3
2018-Jun-18 21:00N 35°28' W 052°21'1 1.1 1017.8 23.4
2018-Jun-18 20:00N 35°28' W 052°20'2 0.8 1017.7 23.5
2018-Jun-18 18:00N 35°29' W 052°18'1 0.8 1018.0 23.4
2018-Jun-18 17:00N 35°29' W 052°17'0 0.5 1018.3 23.4
2018-Jun-18 16:00N 35°29' W 052°17'1 0.3 1018.4 23.2
2018-Jun-18 14:00N 35°30' W 052°17'1 0.8 1018.5 23.5
2018-Jun-18 13:00N 35°29' W 052°16'0 0.0 1018.0 23.2
2018-Jun-18 12:00N 35°29' W 052°16'0 0.5 1018.0 22.7
2018-Jun-18 11:00N 35°29' W 052°16'1 0.6 1017.8 22.6
2018-Jun-18 09:00N 35°29' W 052°14'1 0.8 1016.8 22.5
2018-Jun-18 08:00N 35°28' W 052°14'1 1.1 1016.6 22.5
2018-Jun-18 07:00N 35°28' W 052°13'1 1.1 1016.0 22.6
2018-Jun-18 06:00N 35°27' W 052°11'1 1.1 1015.8 22.6
2018-Jun-18 05:00N 35°26' W 052°10'1 1.0 1015.7 22.6
2018-Jun-18 04:00N 35°26' W 052°09'1 1.5 1015.8 22.6
2018-Jun-18 03:00N 35°26' W 052°07'1 1.0 1015.9 22.6
2018-Jun-18 02:00N 35°26' W 052°06'1 1.0 1015.5 22.6
2018-Jun-18 01:00N 35°26' W 052°05'2 1.6 1015.7 22.6
2018-Jun-18 00:00N 35°27' W 052°03'1 1.1 1015.5 22.6
2018-Jun-17 23:00N 35°28' W 052°02'1 1.1 1014.9 22.6
2018-Jun-17 22:00N 35°28' W 052°01'1 1.1 1013.9 22.6
2018-Jun-17 21:00N 35°29' W 051°59'1 0.8 1012.2 22.6
2018-Jun-17 20:00N 35°29' W 051°59'1 1.0 1012.8 22.7
2018-Jun-17 19:00N 35°29' W 051°58'1 0.8 1013.2 22.7
2018-Jun-17 18:00N 35°30' W 051°57'0 0.0 1014.0 22.7
2018-Jun-17 17:00N 35°30' W 051°57'1 0.8 1014.1 22.8
2018-Jun-17 16:00N 35°31' W 051°56'0 0.0 1014.2 22.8
2018-Jun-17 15:00N 35°31' W 051°56'0 0.5 1014.3 22.8
2018-Jun-17 14:00N 35°31' W 051°56'0 0.0 1014.2 22.7
2018-Jun-17 13:00N 35°31' W 051°56'0 0.0 1014.3 22.7
2018-Jun-17 12:00N 35°31' W 051°56'1 0.8 1013.1 22.7
2018-Jun-17 11:00N 35°30' W 051°55'0 0.5 1013.4 22.7
2018-Jun-17 10:00N 35°30' W 051°55'0 0.0 1013.4 22.7
2018-Jun-17 09:00N 35°30' W 051°55'1 0.8 1013.5 22.7
2018-Jun-17 08:00N 35°29' W 051°54'0 0.5 1013.4 22.7
2018-Jun-17 07:00N 35°29' W 051°53'1 0.8 1013.6 22.7
2018-Jun-17 06:00N 35°29' W 051°53'1 0.8 1014.0 22.7
2018-Jun-17 05:00N 35°28' W 051°52'1 1.0 1014.1 22.7
2018-Jun-17 04:00N 35°28' W 051°51'1 0.8 1015.1 22.7
2018-Jun-17 03:00N 35°28' W 051°50'1 1.0 1015.3 22.7
2018-Jun-17 02:00N 35°28' W 051°49'1 0.8 1015.6 22.8
2018-Jun-17 01:00N 35°27' W 051°49'1 1.0 1015.7 22.8
2018-Jun-17 00:00N 35°27' W 051°47'1 1.1 1015.6 22.8
2018-Jun-16 23:00N 35°28' W 051°46'0 0.5 1015.6 22.8
2018-Jun-16 22:00N 35°28' W 051°46'1 1.0 1015.6 22.8
2018-Jun-16 21:00N 35°28' W 051°44'0 0.5 1015.5 22.8
2018-Jun-16 20:00N 35°28' W 051°44'0 0.5 1015.5 22.8
2018-Jun-16 19:00N 35°28' W 051°43'1 0.8 1015.9 22.8
2018-Jun-16 18:00N 35°28' W 051°43'0 0.0 1016.2 22.8
2018-Jun-16 17:00N 35°28' W 051°43'1 0.8 1016.4 22.8
2018-Jun-16 16:00N 35°29' W 051°42'0 0.2 1016.7 22.7
2018-Jun-16 14:00N 35°29' W 051°41'0 0.0 1017.2 22.7
2018-Jun-16 13:00N 35°29' W 051°41'1 0.6 1017.1 22.7
2018-Jun-16 12:00N 35°28' W 051°41'0 0.5 1017.2 22.7
2018-Jun-16 11:00N 35°28' W 051°41'1 0.8 1017.2 22.6
2018-Jun-16 10:00N 35°28' W 051°40'1 0.8 1017.0 22.6
2018-Jun-16 09:00N 35°27' W 051°40'0 0.5 1017.0 22.6
2018-Jun-16 08:00N 35°27' W 051°39'1 1.1 1017.1 22.6
2018-Jun-16 07:00N 35°26' W 051°38'1 1.0 1016.9 22.7
2018-Jun-16 06:00N 35°26' W 051°37'0 0.5 1017.2 22.7
2018-Jun-16 05:00N 35°26' W 051°36'1 1.0 1017.5 22.7
2018-Jun-16 04:00N 35°26' W 051°35'1 0.7 1017.7 22.7
2018-Jun-16 02:00N 35°26' W 051°33'1 1.0 1018.4 22.8
2018-Jun-16 01:00N 35°26' W 051°32'1 1.1 1018.7 22.8
2018-Jun-16 00:00N 35°27' W 051°31'1 1.0 1018.4 22.9
2018-Jun-15 23:00N 35°27' W 051°29'1 0.8 1018.1 22.9
2018-Jun-15 22:00N 35°28' W 051°29'1 1.1 1017.9 22.9
2018-Jun-15 21:00N 35°28' W 051°28'0 0.5 1017.8 23.0
2018-Jun-15 20:00N 35°28' W 051°27'1 0.6 1017.8 23.0
2018-Jun-15 19:00N 35°29' W 051°27'1 0.8 1018.0 23.0
2018-Jun-15 18:00N 35°29' W 051°26'0 0.5 1018.3 23.0
2018-Jun-15 17:00N 35°29' W 051°27'0 0.0 1018.5 23.0
2018-Jun-15 16:00N 35°29' W 051°27'0 0.0 1018.6 23.0
2018-Jun-15 15:00N 35°29' W 051°27'1 0.6 1019.1 22.9
2018-Jun-15 13:00N 35°28' W 051°26'0 0.5 1019.4 22.8
2018-Jun-15 12:00N 35°28' W 051°26'1 1.1 1019.5 22.7
2018-Jun-15 11:00N 35°28' W 051°25'0 0.5 1019.8 22.7
2018-Jun-15 10:00N 35°28' W 051°24'1 1.0 1019.7 22.7
2018-Jun-15 09:00N 35°28' W 051°23'1 1.1 1019.6 22.7
2018-Jun-15 08:00N 35°27' W 051°22'1 1.0 1019.7 22.7
2018-Jun-15 07:00N 35°27' W 051°20'1 1.0 1019.2 22.7
2018-Jun-15 06:00N 35°27' W 051°19'2 1.0 1019.2 22.7
2018-Jun-15 04:00N 35°28' W 051°17'1 0.8 1019.5 22.7
2018-Jun-15 03:00N 35°28' W 051°16'1 1.0 1019.9 22.7
2018-Jun-15 02:00N 35°28' W 051°15'1 0.8 1020.2 22.8
2018-Jun-15 01:00N 35°29' W 051°14'1 1.1 1020.4 22.8
2018-Jun-15 00:00N 35°29' W 051°13'1 0.8 1019.8 22.8
2018-Jun-14 23:00N 35°30' W 051°13'1 0.6 1019.1 23.0
2018-Jun-14 21:00N 35°31' W 051°11'0 0.5 1017.9 23.3
2018-Jun-14 20:00N 35°31' W 051°11'0 0.5 1017.8 23.3
2018-Jun-14 19:00N 35°31' W 051°10'0 0.5 1018.0 23.3
2018-Jun-14 18:00N 35°31' W 051°10'1 0.8 1018.3 23.1
2018-Jun-14 17:00N 35°31' W 051°09'1 0.5 1018.4 23.2
2018-Jun-14 15:00N 35°31' W 051°08'1 0.5 1019.2 22.9
2018-Jun-14 13:00N 35°31' W 051°07'0 0.5 1019.2 22.5
2018-Jun-14 12:00N 35°31' W 051°06'1 0.8 1019.3 22.5
2018-Jun-14 11:00N 35°31' W 051°05'1 1.1 1019.5 22.5
2018-Jun-14 10:00N 35°30' W 051°04'1 1.0 1019.2 22.5
2018-Jun-14 09:00N 35°30' W 051°03'1 1.0 1019.0 22.5
2018-Jun-14 08:00N 35°30' W 051°02'1 1.5 1019.1 22.5
2018-Jun-14 07:00N 35°30' W 051°00'1 1.0 1018.9 22.5
2018-Jun-14 06:00N 35°30' W 050°59'1 1.5 1018.8 22.5
2018-Jun-14 05:00N 35°30' W 050°57'2 1.6 1018.9 22.6
2018-Jun-14 04:00N 35°31' W 050°55'1 1.0 1019.4 22.6
2018-Jun-14 03:00N 35°31' W 050°54'2 1.6 1019.7 22.6
2018-Jun-14 02:00N 35°31' W 050°52'1 1.1 1019.6 22.6
2018-Jun-14 01:00N 35°32' W 050°51'2 1.9 1020.0 22.6
2018-Jun-14 00:00N 35°33' W 050°49'1 1.3 1019.5 22.7
2018-Jun-13 23:00N 35°34' W 050°49'1 1.1 1018.9 22.7
2018-Jun-13 22:00N 35°35' W 050°47'1 1.3 1018.6 22.7
2018-Jun-13 21:00N 35°36' W 050°47'   1018.0 22.7
Track history (hours):
 
Tides and Currents Weather Stations Pressure Air Temp Water Temp Dewpoint Dewpoint Depression Visibility Wind Speed Wind Dir Waves Ship Positions

Drifting buoy 44891

Last reported at 2018-Jun-23 21:00 UTC. Time now 2018-Jun-23 21:53 UTC.
Position N 35°40' W 052°58'.

Barometer 1023.0 mb
Water temperature 24.2 ° C

Date/timePositionNaut miles runAvg speedWind from/ knotsBaromVisibWave heightAir tempDewpointWater temp
2018-Jun-23 21:00N 35°40' W 052°58'0 0.0 1023.0 24.2
2018-Jun-23 20:00N 35°40' W 052°58'0 0.5 1023.1 24.1
2018-Jun-23 19:00N 35°40' W 052°58'1 0.8 1023.1 24.2
2018-Jun-23 18:00N 35°40' W 052°59'1 0.6 1023.1 24.1
2018-Jun-23 17:00N 35°39' W 052°59'0 0.0 1023.1 24.1
2018-Jun-23 16:00N 35°39' W 052°59'1 0.6 1023.2 23.9
2018-Jun-23 15:00N 35°38' W 052°59'1 0.6 1023.6 23.9
2018-Jun-23 14:00N 35°38' W 052°59'1 0.8 1023.7 23.8
2018-Jun-23 13:00N 35°37' W 052°58'0 0.0 1023.6 23.7
2018-Jun-23 12:00N 35°37' W 052°58'1 0.8 1023.3 23.7
2018-Jun-23 11:00N 35°37' W 052°58'0 0.5 1023.3 23.7
2018-Jun-23 10:00N 35°37' W 052°57'0 0.5 1022.9 23.7
2018-Jun-23 09:00N 35°37' W 052°56'1 0.6 1022.5 23.6
2018-Jun-23 08:00N 35°36' W 052°56'0 0.5 1022.1 23.6
2018-Jun-23 07:00N 35°36' W 052°56'1 0.8 1021.9 23.7
2018-Jun-23 06:00N 35°37' W 052°55'0 0.0 1021.6 23.7
2018-Jun-23 05:00N 35°37' W 052°55'0 0.0 1021.6 23.7
2018-Jun-23 04:00N 35°37' W 052°55'0 0.0 1021.7 23.7
2018-Jun-23 03:00N 35°37' W 052°55'0 0.0 1021.7 23.7
2018-Jun-23 02:00N 35°37' W 052°55'1 0.8 1021.9 23.7
2018-Jun-23 01:00N 35°36' W 052°56'0 0.0 1022.1 23.7
2018-Jun-23 00:00N 35°36' W 052°56'1 0.6 1021.9 23.7
2018-Jun-22 23:00N 35°35' W 052°56'1 0.3 1021.4 23.7
2018-Jun-22 21:00N 35°35' W 052°56'0 0.0 1020.6 23.8
2018-Jun-22 20:00N 35°35' W 052°56'1 0.6 1020.7 23.8
2018-Jun-22 19:00N 35°34' W 052°56'1 0.6 1020.7 23.8
2018-Jun-22 18:00N 35°34' W 052°56'1 0.6 1020.7 23.8
2018-Jun-22 17:00N 35°33' W 052°56'0 0.0 1020.8 23.8
2018-Jun-22 16:00N 35°33' W 052°56'1 0.6 1020.9 23.7
2018-Jun-22 15:00N 35°32' W 052°56'0 0.5 1021.0 23.7
2018-Jun-22 14:00N 35°32' W 052°55'1 0.6 1020.9 23.6
2018-Jun-22 13:00N 35°32' W 052°55'2 0.2 1020.7 23.5
2018-Jun-22 03:00N 35°30' W 052°53'0 0.5 1019.3 23.5
2018-Jun-22 02:00N 35°30' W 052°53'0 0.0 1019.5 23.5
2018-Jun-22 01:00N 35°30' W 052°53'0 0.0 1019.6 23.5
2018-Jun-22 00:00N 35°30' W 052°53'1 0.2 1019.2 23.5
2018-Jun-21 21:00N 35°31' W 052°53'1 0.6 1018.2 23.6
2018-Jun-21 20:00N 35°30' W 052°53'0 0.0 1017.6 23.6
2018-Jun-21 19:00N 35°30' W 052°53'0 0.0 1017.7 23.6
2018-Jun-21 18:00N 35°30' W 052°53'1 0.8 1017.7 23.6
2018-Jun-21 17:00N 35°29' W 052°52'0 0.0 1017.7 23.6
2018-Jun-21 16:00N 35°29' W 052°52'0 0.5 1017.7 23.5
2018-Jun-21 15:00N 35°29' W 052°52'1 0.6 1017.8 23.4
2018-Jun-21 14:00N 35°29' W 052°52'0 0.0 1017.9 23.4
2018-Jun-21 13:00N 35°29' W 052°52'1 0.8 1017.6 23.3
2018-Jun-21 12:00N 35°29' W 052°51'0 0.0 1017.3 23.2
2018-Jun-21 11:00N 35°29' W 052°51'0 0.0 1017.1 23.2
2018-Jun-21 10:00N 35°29' W 052°51'0 0.5 1016.7 23.2
2018-Jun-21 09:00N 35°29' W 052°50'0 0.0 1016.1 23.2
2018-Jun-21 08:00N 35°29' W 052°50'0 0.0 1015.6 23.2
2018-Jun-21 07:00N 35°29' W 052°50'0 0.5 1015.4 23.3
2018-Jun-21 06:00N 35°29' W 052°50'1 0.6 1015.4 23.3
2018-Jun-21 05:00N 35°29' W 052°50'0 0.0 1015.8 23.3
2018-Jun-21 04:00N 35°29' W 052°50'0 0.5 1015.9 23.3
2018-Jun-21 03:00N 35°29' W 052°49'0 0.0 1016.1 23.3
2018-Jun-21 02:00N 35°29' W 052°49'0 0.5 1015.9 23.3
2018-Jun-21 01:00N 35°29' W 052°49'0 0.0 1016.3 23.3
2018-Jun-20 23:00N 35°29' W 052°49'0 0.0 1016.1 23.4
2018-Jun-20 22:00N 35°29' W 052°49'0 0.5 1015.7 23.4
2018-Jun-20 21:00N 35°29' W 052°48'0 0.0 1015.4 23.4
2018-Jun-20 20:00N 35°29' W 052°48'1 0.6 1015.2 23.4
2018-Jun-20 19:00N 35°28' W 052°48'0 0.5 1015.4 23.4
2018-Jun-20 18:00N 35°28' W 052°47'0 0.5 1015.4 23.5
2018-Jun-20 17:00N 35°28' W 052°47'0 0.0 1015.3 23.5
2018-Jun-20 16:00N 35°28' W 052°47'1 0.8 1015.1 23.5
2018-Jun-20 15:00N 35°28' W 052°46'0 0.5 1015.2 23.4
2018-Jun-20 14:00N 35°28' W 052°46'0 0.5 1015.2 23.4
2018-Jun-20 13:00N 35°28' W 052°45'2 0.6 1014.7 23.4
2018-Jun-20 10:00N 35°29' W 052°43'1 0.8 1014.5 23.4
2018-Jun-20 09:00N 35°29' W 052°43'1 0.6 1014.3 23.4
2018-Jun-20 08:00N 35°30' W 052°43'1 0.6 1013.9 23.5
2018-Jun-20 07:00N 35°31' W 052°43'1 0.6 1013.5 23.5
2018-Jun-20 06:00N 35°31' W 052°43'0 0.0 1013.3 23.6
2018-Jun-20 05:00N 35°31' W 052°43'1 0.6 1013.5 23.6
2018-Jun-20 04:00N 35°31' W 052°43'0 0.0 1013.7 23.7
2018-Jun-20 03:00N 35°31' W 052°43'0 0.0 1014.0 23.8
2018-Jun-20 02:00N 35°31' W 052°43'1 0.8 1014.4 23.9
2018-Jun-20 01:00N 35°30' W 052°42'0 0.5 1014.3 24.0
2018-Jun-20 00:00N 35°30' W 052°41'1 0.8 1014.2 24.2
2018-Jun-19 23:00N 35°29' W 052°41'1 1.0 1014.1 24.2
2018-Jun-19 22:00N 35°29' W 052°40'1 0.8 1013.9 24.1
2018-Jun-19 21:00N 35°29' W 052°39'1 1.0 1013.6 24.1
2018-Jun-19 20:00N 35°29' W 052°38'1 1.0 1013.7 24.1
2018-Jun-19 19:00N 35°29' W 052°37'1 0.8 1014.3 24.1
2018-Jun-19 18:00N 35°29' W 052°36'1 1.0 1014.6 24.4
2018-Jun-19 17:00N 35°29' W 052°35'0 0.5 1015.1 24.6
2018-Jun-19 16:00N 35°29' W 052°34'1 0.8 1015.4 24.6
2018-Jun-19 15:00N 35°30' W 052°34'0 0.5 1015.8 24.1
2018-Jun-19 14:00N 35°30' W 052°33'0 0.5 1016.0 24.1
2018-Jun-19 13:00N 35°30' W 052°32'1 0.8 1016.0 24.1
2018-Jun-19 12:00N 35°31' W 052°32'0 0.5 1016.4 23.4
2018-Jun-19 11:00N 35°31' W 052°31'1 0.6 1016.8 23.0
2018-Jun-19 10:00N 35°31' W 052°31'0 0.0 1016.9 22.9
2018-Jun-19 09:00N 35°31' W 052°31'1 0.8 1016.6 22.9
2018-Jun-19 08:00N 35°31' W 052°31'0 0.0 1016.6 22.9
2018-Jun-19 07:00N 35°31' W 052°31'0 0.5 1016.5 23.0
2018-Jun-19 06:00N 35°31' W 052°30'1 0.8 1017.1 23.0
2018-Jun-19 05:00N 35°30' W 052°29'1 0.8 1017.6 23.0
2018-Jun-19 04:00N 35°29' W 052°29'0 0.5 1018.1 23.0
2018-Jun-19 03:00N 35°29' W 052°28'1 0.8 1018.5 23.1
2018-Jun-19 02:00N 35°29' W 052°28'1 1.1 1018.6 23.1
2018-Jun-19 01:00N 35°28' W 052°26'2 1.0 1018.6 23.1
2018-Jun-18 23:00N 35°28' W 052°24'1 1.5 1018.5 23.2
2018-Jun-18 22:00N 35°28' W 052°22'1 1.0 1018.3 23.3
2018-Jun-18 21:00N 35°28' W 052°21'1 1.1 1017.8 23.4
2018-Jun-18 20:00N 35°28' W 052°20'2 0.8 1017.7 23.5
2018-Jun-18 18:00N 35°29' W 052°18'1 0.8 1018.0 23.4
2018-Jun-18 17:00N 35°29' W 052°17'0 0.5 1018.3 23.4
2018-Jun-18 16:00N 35°29' W 052°17'1 0.3 1018.4 23.2
2018-Jun-18 14:00N 35°30' W 052°17'1 0.8 1018.5 23.5
2018-Jun-18 13:00N 35°29' W 052°16'0 0.0 1018.0 23.2
2018-Jun-18 12:00N 35°29' W 052°16'0 0.5 1018.0 22.7
2018-Jun-18 11:00N 35°29' W 052°16'1 0.6 1017.8 22.6
2018-Jun-18 09:00N 35°29' W 052°14'1 0.8 1016.8 22.5
2018-Jun-18 08:00N 35°28' W 052°14'1 1.1 1016.6 22.5
2018-Jun-18 07:00N 35°28' W 052°13'1 1.1 1016.0 22.6
2018-Jun-18 06:00N 35°27' W 052°11'1 1.1 1015.8 22.6
2018-Jun-18 05:00N 35°26' W 052°10'1 1.0 1015.7 22.6
2018-Jun-18 04:00N 35°26' W 052°09'1 1.5 1015.8 22.6
2018-Jun-18 03:00N 35°26' W 052°07'1 1.0 1015.9 22.6
2018-Jun-18 02:00N 35°26' W 052°06'1 1.0 1015.5 22.6
2018-Jun-18 01:00N 35°26' W 052°05'2 1.6 1015.7 22.6
2018-Jun-18 00:00N 35°27' W 052°03'1 1.1 1015.5 22.6
2018-Jun-17 23:00N 35°28' W 052°02'1 1.1 1014.9 22.6
2018-Jun-17 22:00N 35°28' W 052°01'1 1.1 1013.9 22.6
2018-Jun-17 21:00N 35°29' W 051°59'1 0.8 1012.2 22.6
2018-Jun-17 20:00N 35°29' W 051°59'1 1.0 1012.8 22.7
2018-Jun-17 19:00N 35°29' W 051°58'1 0.8 1013.2 22.7
2018-Jun-17 18:00N 35°30' W 051°57'0 0.0 1014.0 22.7
2018-Jun-17 17:00N 35°30' W 051°57'1 0.8 1014.1 22.8
2018-Jun-17 16:00N 35°31' W 051°56'0 0.0 1014.2 22.8
2018-Jun-17 15:00N 35°31' W 051°56'0 0.5 1014.3 22.8
2018-Jun-17 14:00N 35°31' W 051°56'0 0.0 1014.2 22.7
2018-Jun-17 13:00N 35°31' W 051°56'0 0.0 1014.3 22.7
2018-Jun-17 12:00N 35°31' W 051°56'1 0.8 1013.1 22.7
2018-Jun-17 11:00N 35°30' W 051°55'0 0.5 1013.4 22.7
2018-Jun-17 10:00N 35°30' W 051°55'0 0.0 1013.4 22.7
2018-Jun-17 09:00N 35°30' W 051°55'1 0.8 1013.5 22.7
2018-Jun-17 08:00N 35°29' W 051°54'0 0.5 1013.4 22.7
2018-Jun-17 07:00N 35°29' W 051°53'1 0.8 1013.6 22.7
2018-Jun-17 06:00N 35°29' W 051°53'1 0.8 1014.0 22.7
2018-Jun-17 05:00N 35°28' W 051°52'1 1.0 1014.1 22.7
2018-Jun-17 04:00N 35°28' W 051°51'1 0.8 1015.1 22.7
2018-Jun-17 03:00N 35°28' W 051°50'1 1.0 1015.3 22.7
2018-Jun-17 02:00N 35°28' W 051°49'1 0.8 1015.6 22.8
2018-Jun-17 01:00N 35°27' W 051°49'1 1.0 1015.7 22.8
2018-Jun-17 00:00N 35°27' W 051°47'1 1.1 1015.6 22.8
2018-Jun-16 23:00N 35°28' W 051°46'0 0.5 1015.6 22.8
2018-Jun-16 22:00N 35°28' W 051°46'1 1.0 1015.6 22.8
2018-Jun-16 21:00N 35°28' W 051°44'0 0.5 1015.5 22.8
2018-Jun-16 20:00N 35°28' W 051°44'0 0.5 1015.5 22.8
2018-Jun-16 19:00N 35°28' W 051°43'1 0.8 1015.9 22.8
2018-Jun-16 18:00N 35°28' W 051°43'0 0.0 1016.2 22.8
2018-Jun-16 17:00N 35°28' W 051°43'1 0.8 1016.4 22.8
2018-Jun-16 16:00N 35°29' W 051°42'0 0.2 1016.7 22.7
2018-Jun-16 14:00N 35°29' W 051°41'0 0.0 1017.2 22.7
2018-Jun-16 13:00N 35°29' W 051°41'1 0.6 1017.1 22.7
2018-Jun-16 12:00N 35°28' W 051°41'0 0.5 1017.2 22.7
2018-Jun-16 11:00N 35°28' W 051°41'1 0.8 1017.2 22.6
2018-Jun-16 10:00N 35°28' W 051°40'1 0.8 1017.0 22.6
2018-Jun-16 09:00N 35°27' W 051°40'0 0.5 1017.0 22.6
2018-Jun-16 08:00N 35°27' W 051°39'1 1.1 1017.1 22.6
2018-Jun-16 07:00N 35°26' W 051°38'1 1.0 1016.9 22.7
2018-Jun-16 06:00N 35°26' W 051°37'0 0.5 1017.2 22.7
2018-Jun-16 05:00N 35°26' W 051°36'1 1.0 1017.5 22.7
2018-Jun-16 04:00N 35°26' W 051°35'1 0.7 1017.7 22.7
2018-Jun-16 02:00N 35°26' W 051°33'1 1.0 1018.4 22.8
2018-Jun-16 01:00N 35°26' W 051°32'1 1.1 1018.7 22.8
2018-Jun-16 00:00N 35°27' W 051°31'1 1.0 1018.4 22.9
2018-Jun-15 23:00N 35°27' W 051°29'1 0.8 1018.1 22.9
2018-Jun-15 22:00N 35°28' W 051°29'1 1.1 1017.9 22.9
2018-Jun-15 21:00N 35°28' W 051°28'0 0.5 1017.8 23.0
2018-Jun-15 20:00N 35°28' W 051°27'1 0.6 1017.8 23.0
2018-Jun-15 19:00N 35°29' W 051°27'1 0.8 1018.0 23.0
2018-Jun-15 18:00N 35°29' W 051°26'0 0.5 1018.3 23.0
2018-Jun-15 17:00N 35°29' W 051°27'0 0.0 1018.5 23.0
2018-Jun-15 16:00N 35°29' W 051°27'0 0.0 1018.6 23.0
2018-Jun-15 15:00N 35°29' W 051°27'1 0.6 1019.1 22.9
2018-Jun-15 13:00N 35°28' W 051°26'0 0.5 1019.4 22.8
2018-Jun-15 12:00N 35°28' W 051°26'1 1.1 1019.5 22.7
2018-Jun-15 11:00N 35°28' W 051°25'0 0.5 1019.8 22.7
2018-Jun-15 10:00N 35°28' W 051°24'1 1.0 1019.7 22.7
2018-Jun-15 09:00N 35°28' W 051°23'1 1.1 1019.6 22.7
2018-Jun-15 08:00N 35°27' W 051°22'1 1.0 1019.7 22.7
2018-Jun-15 07:00N 35°27' W 051°20'1 1.0 1019.2 22.7
2018-Jun-15 06:00N 35°27' W 051°19'2 1.0 1019.2 22.7
2018-Jun-15 04:00N 35°28' W 051°17'1 0.8 1019.5 22.7
2018-Jun-15 03:00N 35°28' W 051°16'1 1.0 1019.9 22.7
2018-Jun-15 02:00N 35°28' W 051°15'1 0.8 1020.2 22.8
2018-Jun-15 01:00N 35°29' W 051°14'1 1.1 1020.4 22.8
2018-Jun-15 00:00N 35°29' W 051°13'1 0.8 1019.8 22.8
2018-Jun-14 23:00N 35°30' W 051°13'1 0.6 1019.1 23.0
2018-Jun-14 21:00N 35°31' W 051°11'0 0.5 1017.9 23.3
2018-Jun-14 20:00N 35°31' W 051°11'0 0.5 1017.8 23.3
2018-Jun-14 19:00N 35°31' W 051°10'0 0.5 1018.0 23.3
2018-Jun-14 18:00N 35°31' W 051°10'1 0.8 1018.3 23.1
2018-Jun-14 17:00N 35°31' W 051°09'1 0.5 1018.4 23.2
2018-Jun-14 15:00N 35°31' W 051°08'1 0.5 1019.2 22.9
2018-Jun-14 13:00N 35°31' W 051°07'0 0.5 1019.2 22.5
2018-Jun-14 12:00N 35°31' W 051°06'1 0.8 1019.3 22.5
2018-Jun-14 11:00N 35°31' W 051°05'1 1.1 1019.5 22.5
2018-Jun-14 10:00N 35°30' W 051°04'1 1.0 1019.2 22.5
2018-Jun-14 09:00N 35°30' W 051°03'1 1.0 1019.0 22.5
2018-Jun-14 08:00N 35°30' W 051°02'1 1.5 1019.1 22.5
2018-Jun-14 07:00N 35°30' W 051°00'1 1.0 1018.9 22.5
2018-Jun-14 06:00N 35°30' W 050°59'1 1.5 1018.8 22.5
2018-Jun-14 05:00N 35°30' W 050°57'2 1.6 1018.9 22.6
2018-Jun-14 04:00N 35°31' W 050°55'1 1.0 1019.4 22.6
2018-Jun-14 03:00N 35°31' W 050°54'2 1.6 1019.7 22.6
2018-Jun-14 02:00N 35°31' W 050°52'1 1.1 1019.6 22.6
2018-Jun-14 01:00N 35°32' W 050°51'2 1.9 1020.0 22.6
2018-Jun-14 00:00N 35°33' W 050°49'1 1.3 1019.5 22.7
2018-Jun-13 23:00N 35°34' W 050°49'1 1.1 1018.9 22.7
2018-Jun-13 22:00N 35°35' W 050°47'1 1.3 1018.6 22.7
2018-Jun-13 21:00N 35°36' W 050°47'   1018.0 22.7

Dump ship's entire track history